sensor_id;sensor_type;location;lat;lon;timestamp;pressure;altitude;pressure_sealevel;temperature;humidity
50356;BME280;36264;51.296;-0.602;2023-05-20T11:21:07;102166.59;;;24.30;46.61
50356;BME280;36264;51.296;-0.602;2023-05-20T11:23:33;102169.28;;;24.56;45.20
50356;BME280;36264;51.296;-0.602;2023-05-20T11:25:58;102168.16;;;24.60;44.83
50356;BME280;36264;51.296;-0.602;2023-05-20T11:28:24;102172.50;;;24.74;45.29
50356;BME280;36264;51.296;-0.602;2023-05-20T11:30:52;102161.44;;;25.19;45.05
50356;BME280;36264;51.296;-0.602;2023-05-20T11:33:18;102161.44;;;25.31;44.80
50356;BME280;36264;51.296;-0.602;2023-05-20T11:35:51;102158.28;;;25.63;42.81
50356;BME280;36264;51.296;-0.602;2023-05-20T11:38:18;102157.50;;;25.74;43.91
50356;BME280;36264;51.296;-0.602;2023-05-20T11:40:51;102162.22;;;25.82;43.56
50356;BME280;36264;51.296;-0.602;2023-05-20T11:43:17;102150.34;;;25.75;44.30
50356;BME280;36264;51.296;-0.602;2023-05-20T11:45:46;102151.97;;;25.64;44.09
50356;BME280;36264;51.296;-0.602;2023-05-20T11:48:12;102166.38;;;25.62;44.07
50356;BME280;36264;51.296;-0.602;2023-05-20T11:50:42;102149.41;;;25.39;44.21
50356;BME280;36264;51.296;-0.602;2023-05-20T11:53:09;102146.84;;;25.37;44.35
50356;BME280;36264;51.296;-0.602;2023-05-20T11:55:58;102134.66;;;25.59;41.95
50356;BME280;36264;51.296;-0.602;2023-05-20T11:58:28;102135.72;;;25.80;43.82
50356;BME280;36264;51.296;-0.602;2023-05-20T12:00:54;102125.72;;;25.84;43.29
50356;BME280;36264;51.296;-0.602;2023-05-20T12:03:19;102125.63;;;25.85;43.39
50356;BME280;36264;51.296;-0.602;2023-05-20T12:05:45;102121.09;;;25.75;41.69
50356;BME280;36264;51.296;-0.602;2023-05-20T12:08:15;102120.91;;;25.89;42.62
50356;BME280;36264;51.296;-0.602;2023-05-20T12:10:41;102115.84;;;26.21;42.93
50356;BME280;36264;51.296;-0.602;2023-05-20T12:13:07;102108.06;;;26.18;41.30
50356;BME280;36264;51.296;-0.602;2023-05-20T12:15:36;102118.69;;;26.07;41.85
50356;BME280;36264;51.296;-0.602;2023-05-20T12:18:02;102103.97;;;26.14;41.91
50356;BME280;36264;51.296;-0.602;2023-05-20T12:20:28;102109.97;;;26.52;41.67
50356;BME280;36264;51.296;-0.602;2023-05-20T12:22:55;102093.56;;;26.81;40.01
50356;BME280;36264;51.296;-0.602;2023-05-20T12:25:20;102090.25;;;27.11;39.96
50356;BME280;36264;51.296;-0.602;2023-05-20T12:27:47;102098.41;;;26.98;39.77
50356;BME280;36264;51.296;-0.602;2023-05-20T12:30:17;102094.38;;;27.15;39.94
50356;BME280;36264;51.296;-0.602;2023-05-20T12:32:43;102105.28;;;27.12;34.88
50356;BME280;36264;51.296;-0.602;2023-05-20T12:35:09;102097.66;;;26.73;40.32
50356;BME280;36264;51.296;-0.602;2023-05-20T12:37:36;102087.25;;;26.70;40.34
50356;BME280;36264;51.296;-0.602;2023-05-20T12:40:02;102086.66;;;26.78;40.25
50356;BME280;36264;51.296;-0.602;2023-05-20T12:42:43;102077.88;;;27.21;35.28
50356;BME280;36264;51.296;-0.602;2023-05-20T12:45:08;102081.03;;;27.38;37.84
50356;BME280;36264;51.296;-0.602;2023-05-20T12:47:34;102077.59;;;27.47;38.80
50356;BME280;36264;51.296;-0.602;2023-05-20T12:50:01;102093.59;;;27.47;37.54
50356;BME280;36264;51.296;-0.602;2023-05-20T12:52:27;102084.78;;;27.35;38.97
50356;BME280;36264;51.296;-0.602;2023-05-20T12:54:53;102089.72;;;27.51;38.21
50356;BME280;36264;51.296;-0.602;2023-05-20T12:57:20;102081.91;;;27.59;38.77
50356;BME280;36264;51.296;-0.602;2023-05-20T12:59:45;102069.38;;;28.04;38.16
50356;BME280;36264;51.296;-0.602;2023-05-20T13:02:10;102079.00;;;28.37;38.18
50356;BME280;36264;51.296;-0.602;2023-05-20T13:04:36;102074.44;;;28.49;37.91
50356;BME280;36264;51.296;-0.602;2023-05-20T13:07:02;102077.38;;;28.25;37.23
50356;BME280;36264;51.296;-0.602;2023-05-20T13:09:27;102063.31;;;28.23;35.65
50356;BME280;36264;51.296;-0.602;2023-05-20T13:11:53;102078.31;;;28.45;36.99
50356;BME280;36264;51.296;-0.602;2023-05-20T13:14:18;102068.41;;;28.57;35.28
50356;BME280;36264;51.296;-0.602;2023-05-20T13:16:43;102075.34;;;28.59;36.84
50356;BME280;36264;51.296;-0.602;2023-05-20T13:19:09;102072.06;;;28.55;36.56
50356;BME280;36264;51.296;-0.602;2023-05-20T13:21:35;102070.56;;;28.42;35.93
50356;BME280;36264;51.296;-0.602;2023-05-20T13:24:00;102062.81;;;28.08;36.79
50356;BME280;36264;51.296;-0.602;2023-05-20T13:26:26;102063.88;;;28.26;35.58
50356;BME280;36264;51.296;-0.602;2023-05-20T13:28:51;102052.19;;;28.69;35.78
50356;BME280;36264;51.296;-0.602;2023-05-20T13:31:17;102049.31;;;29.12;32.73
50356;BME280;36264;51.296;-0.602;2023-05-20T13:33:42;102050.81;;;29.84;34.34
50356;BME280;36264;51.296;-0.602;2023-05-20T13:36:07;102052.03;;;30.19;34.37
50356;BME280;36264;51.296;-0.602;2023-05-20T13:38:33;102055.59;;;29.41;34.64
50356;BME280;36264;51.296;-0.602;2023-05-20T13:40:58;102059.09;;;29.22;34.77
50356;BME280;36264;51.296;-0.602;2023-05-20T13:43:24;102040.09;;;29.55;33.91
50356;BME280;36264;51.296;-0.602;2023-05-20T13:45:51;102036.56;;;30.03;33.76
50356;BME280;36264;51.296;-0.602;2023-05-20T13:48:16;102030.97;;;30.44;32.43
50356;BME280;36264;51.296;-0.602;2023-05-20T13:50:42;102031.75;;;31.28;32.53
50356;BME280;36264;51.296;-0.602;2023-05-20T13:53:07;102026.00;;;31.76;32.24
50356;BME280;36264;51.296;-0.602;2023-05-20T13:55:37;102034.66;;;31.16;32.84
50356;BME280;36264;51.296;-0.602;2023-05-20T13:58:02;102032.69;;;30.91;33.39
50356;BME280;36264;51.296;-0.602;2023-05-20T14:00:30;102037.47;;;30.97;32.15
50356;BME280;36264;51.296;-0.602;2023-05-20T14:02:55;102028.84;;;31.03;32.73
50356;BME280;36264;51.296;-0.602;2023-05-20T14:05:21;102015.34;;;31.31;32.32
50356;BME280;36264;51.296;-0.602;2023-05-20T14:07:47;102020.00;;;31.47;32.50
50356;BME280;36264;51.296;-0.602;2023-05-20T14:10:12;102021.94;;;31.36;32.19
50356;BME280;36264;51.296;-0.602;2023-05-20T14:12:38;102018.00;;;30.67;31.28
50356;BME280;36264;51.296;-0.602;2023-05-20T14:15:03;102034.97;;;30.58;32.39
50356;BME280;36264;51.296;-0.602;2023-05-20T14:17:29;102028.53;;;30.78;32.31
50356;BME280;36264;51.296;-0.602;2023-05-20T14:19:54;102029.44;;;30.97;32.27
50356;BME280;36264;51.296;-0.602;2023-05-20T14:22:20;102020.84;;;30.65;32.21
50356;BME280;36264;51.296;-0.602;2023-05-20T14:24:45;102011.88;;;30.47;32.86
50356;BME280;36264;51.296;-0.602;2023-05-20T14:27:10;102008.75;;;30.14;32.20
50356;BME280;36264;51.296;-0.602;2023-05-20T14:29:36;102006.00;;;29.86;33.04
50356;BME280;36264;51.296;-0.602;2023-05-20T14:32:01;102003.88;;;29.70;33.09
50356;BME280;36264;51.296;-0.602;2023-05-20T14:34:28;102007.44;;;29.22;32.98
50356;BME280;36264;51.296;-0.602;2023-05-20T14:36:53;102006.28;;;28.64;33.83
50356;BME280;36264;51.296;-0.602;2023-05-20T14:39:18;102008.53;;;29.19;33.58
50356;BME280;36264;51.296;-0.602;2023-05-20T14:41:44;101995.72;;;30.29;31.71
50356;BME280;36264;51.296;-0.602;2023-05-20T14:44:09;101984.38;;;31.54;29.72
50356;BME280;36264;51.296;-0.602;2023-05-20T14:46:34;101981.19;;;31.77;29.34
50356;BME280;36264;51.296;-0.602;2023-05-20T14:49:00;101977.47;;;31.16;30.42
50356;BME280;36264;51.296;-0.602;2023-05-20T14:51:26;101991.34;;;30.65;29.96
50356;BME280;36264;51.296;-0.602;2023-05-20T14:53:51;101982.47;;;29.90;30.90
50356;BME280;36264;51.296;-0.602;2023-05-20T14:56:17;101979.88;;;30.73;30.58
50356;BME280;36264;51.296;-0.602;2023-05-20T14:58:42;101972.69;;;33.43;28.43
50356;BME280;36264;51.296;-0.602;2023-05-20T15:01:07;101960.66;;;35.43;24.43
50356;BME280;36264;51.296;-0.602;2023-05-20T15:03:33;101976.13;;;35.34;24.50
50356;BME280;36264;51.296;-0.602;2023-05-20T15:05:58;101983.06;;;32.96;25.92
50356;BME280;36264;51.296;-0.602;2023-05-20T15:08:24;101977.72;;;32.45;27.55
50356;BME280;36264;51.296;-0.602;2023-05-20T15:10:49;101959.38;;;31.36;27.73
50356;BME280;36264;51.296;-0.602;2023-05-20T15:13:15;101985.53;;;29.95;30.01
50356;BME280;36264;51.296;-0.602;2023-05-20T15:15:40;101982.72;;;29.18;31.00
50356;BME280;36264;51.296;-0.602;2023-05-20T15:18:05;101989.81;;;28.59;31.75
50356;BME280;36264;51.296;-0.602;2023-05-20T15:20:31;101978.94;;;30.64;30.09
50356;BME280;36264;51.296;-0.602;2023-05-20T15:22:56;101963.91;;;33.73;27.00
50356;BME280;36264;51.296;-0.602;2023-05-20T15:25:22;101954.91;;;35.46;25.43
50356;BME280;36264;51.296;-0.602;2023-05-20T15:27:47;101953.59;;;36.10;24.87
50356;BME280;36264;51.296;-0.602;2023-05-20T15:30:13;101951.53;;;35.29;25.41
50356;BME280;36264;51.296;-0.602;2023-05-20T15:32:38;101964.09;;;33.47;25.94
50356;BME280;36264;51.296;-0.602;2023-05-20T15:35:04;101952.16;;;33.33;27.74
50356;BME280;36264;51.296;-0.602;2023-05-20T15:37:30;101948.47;;;33.34;27.74
50356;BME280;36264;51.296;-0.602;2023-05-20T15:39:55;101944.56;;;33.37;25.69
50356;BME280;36264;51.296;-0.602;2023-05-20T15:42:20;101938.19;;;33.71;27.29
50356;BME280;36264;51.296;-0.602;2023-05-20T15:44:46;101942.88;;;34.33;26.75
50356;BME280;36264;51.296;-0.602;2023-05-20T15:47:11;101928.56;;;35.10;25.95
50356;BME280;36264;51.296;-0.602;2023-05-20T15:49:37;101944.94;;;34.15;26.31
50356;BME280;36264;51.296;-0.602;2023-05-20T15:52:02;101938.63;;;32.67;27.46
50356;BME280;36264;51.296;-0.602;2023-05-20T15:54:28;101934.97;;;33.01;26.89
50356;BME280;36264;51.296;-0.602;2023-05-20T15:56:53;101930.41;;;33.76;26.71
50356;BME280;36264;51.296;-0.602;2023-05-20T15:59:19;101927.44;;;34.50;25.43
50356;BME280;36264;51.296;-0.602;2023-05-20T16:01:45;101926.22;;;33.57;25.60
50356;BME280;36264;51.296;-0.602;2023-05-20T16:04:10;101933.50;;;32.48;26.24
50356;BME280;36264;51.296;-0.602;2023-05-20T16:06:36;101935.06;;;31.19;28.23
50356;BME280;36264;51.296;-0.602;2023-05-20T16:09:01;101950.91;;;30.21;29.52
50356;BME280;36264;51.296;-0.602;2023-05-20T16:11:27;101939.41;;;29.44;29.84
50356;BME280;36264;51.296;-0.602;2023-05-20T16:13:53;101939.94;;;28.99;29.55
50356;BME280;36264;51.296;-0.602;2023-05-20T16:16:18;101939.50;;;29.62;29.71
50356;BME280;36264;51.296;-0.602;2023-05-20T16:18:44;101925.81;;;31.84;27.59
50356;BME280;36264;51.296;-0.602;2023-05-20T16:21:09;101923.38;;;33.34;25.28
50356;BME280;36264;51.296;-0.602;2023-05-20T16:23:35;101919.44;;;33.86;25.28
50356;BME280;36264;51.296;-0.602;2023-05-20T16:26:00;101919.00;;;34.05;24.68
50356;BME280;36264;51.296;-0.602;2023-05-20T16:28:26;101912.91;;;32.81;25.87
50356;BME280;36264;51.296;-0.602;2023-05-20T16:30:51;101916.16;;;31.03;27.33
50356;BME280;36264;51.296;-0.602;2023-05-20T16:33:17;101933.53;;;29.88;28.39
50356;BME280;36264;51.296;-0.602;2023-05-20T16:35:42;101930.72;;;29.89;29.21
50356;BME280;36264;51.296;-0.602;2023-05-20T16:38:08;101918.06;;;31.11;28.20
50356;BME280;36264;51.296;-0.602;2023-05-20T16:40:33;101921.25;;;32.54;26.84
50356;BME280;36264;51.296;-0.602;2023-05-20T16:42:59;101904.38;;;33.11;26.38
50356;BME280;36264;51.296;-0.602;2023-05-20T16:45:24;101914.44;;;32.67;27.13
50356;BME280;36264;51.296;-0.602;2023-05-20T16:47:50;101914.28;;;33.10;26.32
50356;BME280;36264;51.296;-0.602;2023-05-20T16:50:15;101919.81;;;33.66;26.29
50356;BME280;36264;51.296;-0.602;2023-05-20T16:52:41;101922.50;;;31.90;26.59
50356;BME280;36264;51.296;-0.602;2023-05-20T16:55:07;101929.78;;;30.46;28.48
50356;BME280;36264;51.296;-0.602;2023-05-20T16:57:33;101926.22;;;29.70;28.57
50356;BME280;36264;51.296;-0.602;2023-05-20T16:59:58;101922.94;;;29.19;29.81
50356;BME280;36264;51.296;-0.602;2023-05-20T17:02:24;101921.75;;;28.83;29.53
50356;BME280;36264;51.296;-0.602;2023-05-20T17:04:50;101918.72;;;29.26;29.56
50356;BME280;36264;51.296;-0.602;2023-05-20T17:07:15;101925.72;;;29.37;29.37
50356;BME280;36264;51.296;-0.602;2023-05-20T17:09:41;101919.69;;;29.35;28.17
50356;BME280;36264;51.296;-0.602;2023-05-20T17:12:06;101920.53;;;30.03;27.48
50356;BME280;36264;51.296;-0.602;2023-05-20T17:14:32;101909.88;;;30.48;27.39
50356;BME280;36264;51.296;-0.602;2023-05-20T17:16:57;101901.88;;;31.20;27.17
50356;BME280;36264;51.296;-0.602;2023-05-20T17:19:23;101903.47;;;32.10;25.73
50356;BME280;36264;51.296;-0.602;2023-05-20T17:21:48;101905.63;;;32.49;25.79
50356;BME280;36264;51.296;-0.602;2023-05-20T17:24:14;101896.16;;;33.20;26.07
50356;BME280;36264;51.296;-0.602;2023-05-20T17:26:39;101898.31;;;33.17;25.38
50356;BME280;36264;51.296;-0.602;2023-05-20T17:29:05;101901.22;;;32.48;26.18
50356;BME280;36264;51.296;-0.602;2023-05-20T17:31:30;101906.03;;;31.59;26.87
50356;BME280;36264;51.296;-0.602;2023-05-20T17:33:56;101910.28;;;30.53;27.84
50356;BME280;36264;51.296;-0.602;2023-05-20T17:36:21;101922.63;;;29.52;28.83
50356;BME280;36264;51.296;-0.602;2023-05-20T17:38:48;101922.31;;;28.86;29.19
50356;BME280;36264;51.296;-0.602;2023-05-20T17:41:13;101922.03;;;28.70;29.40
50356;BME280;36264;51.296;-0.602;2023-05-20T17:43:39;101927.66;;;28.86;29.64
50356;BME280;36264;51.296;-0.602;2023-05-20T17:46:04;101926.28;;;28.92;29.59
50356;BME280;36264;51.296;-0.602;2023-05-20T17:48:30;101922.16;;;28.68;29.52
50356;BME280;36264;51.296;-0.602;2023-05-20T17:50:57;101926.50;;;28.19;29.78
50356;BME280;36264;51.296;-0.602;2023-05-20T17:53:22;101928.06;;;27.70;30.45
50356;BME280;36264;51.296;-0.602;2023-05-20T17:55:48;101930.59;;;27.18;30.73
50356;BME280;36264;51.296;-0.602;2023-05-20T17:58:13;101930.84;;;26.71;30.82
50356;BME280;36264;51.296;-0.602;2023-05-20T18:00:39;101938.63;;;26.51;31.32
50356;BME280;36264;51.296;-0.602;2023-05-20T18:03:09;101935.25;;;26.38;31.53
50356;BME280;36264;51.296;-0.602;2023-05-20T18:05:34;101934.50;;;26.36;31.52
50356;BME280;36264;51.296;-0.602;2023-05-20T18:08:00;101936.69;;;26.42;31.17
50356;BME280;36264;51.296;-0.602;2023-05-20T18:10:25;101935.72;;;26.43;31.55
50356;BME280;36264;51.296;-0.602;2023-05-20T18:12:51;101930.66;;;26.17;31.50
50356;BME280;36264;51.296;-0.602;2023-05-20T18:15:16;101937.31;;;26.00;31.59
50356;BME280;36264;51.296;-0.602;2023-05-20T18:17:43;101935.78;;;25.85;31.93
50356;BME280;36264;51.296;-0.602;2023-05-20T18:20:10;101940.84;;;25.65;31.96
50356;BME280;36264;51.296;-0.602;2023-05-20T18:22:36;101943.47;;;25.54;32.18
50356;BME280;36264;51.296;-0.602;2023-05-20T18:25:01;101945.63;;;25.49;32.54
50356;BME280;36264;51.296;-0.602;2023-05-20T18:27:26;101941.72;;;25.42;32.33
50356;BME280;36264;51.296;-0.602;2023-05-20T18:29:52;101947.50;;;25.36;32.59
50356;BME280;36264;51.296;-0.602;2023-05-20T18:32:18;101952.06;;;25.58;32.74
50356;BME280;36264;51.296;-0.602;2023-05-20T18:34:44;101947.34;;;25.61;32.44
50356;BME280;36264;51.296;-0.602;2023-05-20T18:37:09;101944.34;;;25.66;32.38
50356;BME280;36264;51.296;-0.602;2023-05-20T18:39:35;101940.25;;;25.73;32.31
50356;BME280;36264;51.296;-0.602;2023-05-20T18:42:00;101954.56;;;25.48;32.66
50356;BME280;36264;51.296;-0.602;2023-05-20T18:44:26;101956.06;;;25.28;32.85
50356;BME280;36264;51.296;-0.602;2023-05-20T18:46:51;101967.47;;;25.17;33.05
50356;BME280;36264;51.296;-0.602;2023-05-20T18:49:17;101968.38;;;25.05;33.01
50356;BME280;36264;51.296;-0.602;2023-05-20T18:51:42;101970.31;;;24.90;33.26
50356;BME280;36264;51.296;-0.602;2023-05-20T18:54:07;101965.16;;;24.75;33.34
50356;BME280;36264;51.296;-0.602;2023-05-20T18:56:33;101973.06;;;24.64;33.42
50356;BME280;36264;51.296;-0.602;2023-05-20T18:58:58;101969.25;;;24.55;33.41
50356;BME280;36264;51.296;-0.602;2023-05-20T19:01:24;101973.28;;;24.48;33.56
50356;BME280;36264;51.296;-0.602;2023-05-20T19:03:50;101981.78;;;24.28;33.79
50356;BME280;36264;51.296;-0.602;2023-05-20T19:06:16;101975.84;;;24.24;33.94
50356;BME280;36264;51.296;-0.602;2023-05-20T19:08:42;101980.63;;;24.19;33.99
50356;BME280;36264;51.296;-0.602;2023-05-20T19:11:07;101978.72;;;24.21;34.33
50356;BME280;36264;51.296;-0.602;2023-05-20T19:13:33;101979.03;;;24.29;34.33
50356;BME280;36264;51.296;-0.602;2023-05-20T19:15:59;101981.47;;;24.32;34.09
50356;BME280;36264;51.296;-0.602;2023-05-20T19:18:25;101982.63;;;24.28;34.27
50356;BME280;36264;51.296;-0.602;2023-05-20T19:20:52;101977.56;;;24.25;34.55
50356;BME280;36264;51.296;-0.602;2023-05-20T19:23:17;101980.84;;;24.16;34.72
50356;BME280;36264;51.296;-0.602;2023-05-20T19:25:43;101977.63;;;24.11;34.84
50356;BME280;36264;51.296;-0.602;2023-05-20T19:28:08;101978.19;;;24.03;34.89
50356;BME280;36264;51.296;-0.602;2023-05-20T19:30:34;101983.25;;;23.93;34.94
50356;BME280;36264;51.296;-0.602;2023-05-20T19:33:01;101987.31;;;23.86;35.61
50356;BME280;36264;51.296;-0.602;2023-05-20T19:35:26;101983.09;;;23.69;35.30
50356;BME280;36264;51.296;-0.602;2023-05-20T19:37:52;101984.44;;;23.49;35.47
50356;BME280;36264;51.296;-0.602;2023-05-20T19:40:17;101989.56;;;23.38;35.68
50356;BME280;36264;51.296;-0.602;2023-05-20T19:42:43;101987.44;;;23.30;35.90
50356;BME280;36264;51.296;-0.602;2023-05-20T19:45:09;101986.34;;;23.20;36.15
50356;BME280;36264;51.296;-0.602;2023-05-20T19:47:35;101984.44;;;23.07;35.99
50356;BME280;36264;51.296;-0.602;2023-05-20T19:50:01;101985.91;;;22.98;36.06
50356;BME280;36264;51.296;-0.602;2023-05-20T19:52:26;101988.88;;;22.79;36.61
50356;BME280;36264;51.296;-0.602;2023-05-20T19:54:52;101991.25;;;22.70;36.34
50356;BME280;36264;51.296;-0.602;2023-05-20T19:57:17;101998.81;;;22.61;36.27
50356;BME280;36264;51.296;-0.602;2023-05-20T19:59:42;101996.34;;;22.58;36.52
50356;BME280;36264;51.296;-0.602;2023-05-20T20:02:08;101998.34;;;22.55;36.65
50356;BME280;36264;51.296;-0.602;2023-05-20T20:04:33;102004.97;;;22.48;36.46
50356;BME280;36264;51.296;-0.602;2023-05-20T20:06:58;102012.63;;;22.38;36.64
50356;BME280;36264;51.296;-0.602;2023-05-20T20:09:24;102006.84;;;22.31;36.80
50356;BME280;36264;51.296;-0.602;2023-05-20T20:11:49;102010.78;;;22.24;36.87
50356;BME280;36264;51.296;-0.602;2023-05-20T20:14:15;102012.19;;;22.15;36.55
50356;BME280;36264;51.296;-0.602;2023-05-20T20:16:40;102011.22;;;22.02;36.31
50356;BME280;36264;51.296;-0.602;2023-05-20T20:19:06;102014.09;;;21.83;36.81
50356;BME280;36264;51.296;-0.602;2023-05-20T20:21:31;102015.38;;;21.76;36.79
50356;BME280;36264;51.296;-0.602;2023-05-20T20:23:57;102027.38;;;21.67;36.77
50356;BME280;36264;51.296;-0.602;2023-05-20T20:26:22;102019.19;;;21.56;36.65
50356;BME280;36264;51.296;-0.602;2023-05-20T20:28:50;102016.72;;;21.52;36.74
50356;BME280;36264;51.296;-0.602;2023-05-20T20:31:16;102016.09;;;21.47;36.65
50356;BME280;36264;51.296;-0.602;2023-05-20T20:33:41;102010.97;;;21.44;36.72
50356;BME280;36264;51.296;-0.602;2023-05-20T20:36:07;102018.41;;;21.38;36.70
50356;BME280;36264;51.296;-0.602;2023-05-20T20:38:33;102019.53;;;21.33;36.78
50356;BME280;36264;51.296;-0.602;2023-05-20T20:40:58;102019.00;;;21.27;36.67
50356;BME280;36264;51.296;-0.602;2023-05-20T20:43:24;102016.56;;;21.24;36.62
50356;BME280;36264;51.296;-0.602;2023-05-20T20:45:52;102016.97;;;21.16;36.72
50356;BME280;36264;51.296;-0.602;2023-05-20T20:48:20;102020.88;;;21.09;36.07
50356;BME280;36264;51.296;-0.602;2023-05-20T20:50:51;102019.28;;;21.06;36.29
50356;BME280;36264;51.296;-0.602;2023-05-20T20:53:16;102032.13;;;20.96;36.77
50356;BME280;36264;51.296;-0.602;2023-05-20T20:55:42;102027.78;;;20.79;37.19
50356;BME280;36264;51.296;-0.602;2023-05-20T20:58:08;102021.63;;;20.79;39.73
50356;BME280;36264;51.296;-0.602;2023-05-20T21:00:35;102033.72;;;20.67;41.64
50356;BME280;36264;51.296;-0.602;2023-05-20T21:03:02;102040.22;;;20.42;46.34
50356;BME280;36264;51.296;-0.602;2023-05-20T21:05:27;102035.75;;;20.44;46.18
50356;BME280;36264;51.296;-0.602;2023-05-20T21:07:53;102041.03;;;20.44;45.63
50356;BME280;36264;51.296;-0.602;2023-05-20T21:10:22;102048.94;;;20.44;45.59
50356;BME280;36264;51.296;-0.602;2023-05-20T21:12:48;102050.09;;;20.39;45.86
50356;BME280;36264;51.296;-0.602;2023-05-20T21:15:14;102047.69;;;20.34;46.00
50356;BME280;36264;51.296;-0.602;2023-05-20T21:17:39;102052.59;;;20.24;45.73
50356;BME280;36264;51.296;-0.602;2023-05-20T21:20:05;102055.72;;;20.15;45.32
50356;BME280;36264;51.296;-0.602;2023-05-20T21:22:31;102047.34;;;20.07;45.04
50356;BME280;36264;51.296;-0.602;2023-05-20T21:24:56;102047.78;;;19.98;43.92
50356;BME280;36264;51.296;-0.602;2023-05-20T21:27:22;102046.00;;;19.98;43.77
50356;BME280;36264;51.296;-0.602;2023-05-20T21:29:47;102049.97;;;19.89;43.24
50356;BME280;36264;51.296;-0.602;2023-05-20T21:32:14;102045.53;;;19.90;44.89
50356;BME280;36264;51.296;-0.602;2023-05-20T21:34:40;102048.41;;;19.85;44.97
50356;BME280;36264;51.296;-0.602;2023-05-20T21:37:05;102049.28;;;19.86;46.55
50356;BME280;36264;51.296;-0.602;2023-05-20T21:39:31;102052.97;;;19.82;52.54
50356;BME280;36264;51.296;-0.602;2023-05-20T21:41:56;102057.66;;;19.39;66.49
50356;BME280;36264;51.296;-0.602;2023-05-20T21:44:21;102051.75;;;19.52;55.96
50356;BME280;36264;51.296;-0.602;2023-05-20T21:46:47;102057.41;;;19.62;57.56
50356;BME280;36264;51.296;-0.602;2023-05-20T21:49:12;102048.56;;;19.63;54.67
50356;BME280;36264;51.296;-0.602;2023-05-20T21:51:37;102053.63;;;19.68;52.52
50356;BME280;36264;51.296;-0.602;2023-05-20T21:54:03;102051.13;;;19.65;51.73
50356;BME280;36264;51.296;-0.602;2023-05-20T21:56:28;102049.13;;;19.70;53.01
50356;BME280;36264;51.296;-0.602;2023-05-20T21:58:53;102049.44;;;19.64;51.35
50356;BME280;36264;51.296;-0.602;2023-05-20T22:01:19;102045.31;;;19.58;51.54
50356;BME280;36264;51.296;-0.602;2023-05-20T22:03:44;102055.00;;;19.58;51.76
50356;BME280;36264;51.296;-0.602;2023-05-20T22:06:10;102053.34;;;19.55;51.56
50356;BME280;36264;51.296;-0.602;2023-05-20T22:08:36;102052.72;;;19.50;51.38
50356;BME280;36264;51.296;-0.602;2023-05-20T22:11:02;102051.31;;;19.43;52.37
50356;BME280;36264;51.296;-0.602;2023-05-20T22:13:30;102056.56;;;19.43;52.48
50356;BME280;36264;51.296;-0.602;2023-05-20T22:15:57;102049.91;;;19.35;52.33
50356;BME280;36264;51.296;-0.602;2023-05-20T22:18:22;102046.19;;;19.40;54.89
50356;BME280;36264;51.296;-0.602;2023-05-20T22:20:48;102052.41;;;19.39;56.60
50356;BME280;36264;51.296;-0.602;2023-05-20T22:23:14;102050.75;;;19.36;56.99
50356;BME280;36264;51.296;-0.602;2023-05-20T22:25:39;102045.91;;;19.27;58.56
50356;BME280;36264;51.296;-0.602;2023-05-20T22:28:05;102042.72;;;19.20;59.01
50356;BME280;36264;51.296;-0.602;2023-05-20T22:30:30;102042.38;;;19.09;59.22
50356;BME280;36264;51.296;-0.602;2023-05-20T22:32:56;102043.00;;;18.95;59.60
50356;BME280;36264;51.296;-0.602;2023-05-20T22:35:22;102051.47;;;18.81;68.70
50356;BME280;36264;51.296;-0.602;2023-05-20T22:37:48;102064.19;;;18.71;85.22
50356;BME280;36264;51.296;-0.602;2023-05-20T22:40:14;102057.50;;;18.64;77.56
50356;BME280;36264;51.296;-0.602;2023-05-20T22:42:39;102050.94;;;18.54;72.52
50356;BME280;36264;51.296;-0.602;2023-05-20T22:45:05;102053.63;;;18.52;72.97
50356;BME280;36264;51.296;-0.602;2023-05-20T22:47:31;102053.38;;;18.38;69.90
50356;BME280;36264;51.296;-0.602;2023-05-20T22:49:56;102038.59;;;18.35;72.31
50356;BME280;36264;51.296;-0.602;2023-05-20T22:52:26;102031.09;;;18.26;69.11
50356;BME280;36264;51.296;-0.602;2023-05-20T22:54:52;102028.53;;;18.24;68.53
50356;BME280;36264;51.296;-0.602;2023-05-20T22:57:17;102020.97;;;18.17;63.98
50356;BME280;36264;51.296;-0.602;2023-05-20T22:59:42;102023.28;;;18.04;62.61
50356;BME280;36264;51.296;-0.602;2023-05-20T23:02:08;102023.09;;;17.86;60.64
50356;BME280;36264;51.296;-0.602;2023-05-20T23:04:33;102020.22;;;17.70;59.48
50356;BME280;36264;51.296;-0.602;2023-05-20T23:06:58;102016.78;;;17.68;59.62
50356;BME280;36264;51.296;-0.602;2023-05-20T23:09:24;102015.03;;;17.69;59.39
50356;BME280;36264;51.296;-0.602;2023-05-20T23:11:49;102017.72;;;17.67;58.52
50356;BME280;36264;51.296;-0.602;2023-05-20T23:14:14;102015.94;;;17.68;58.24
50356;BME280;36264;51.296;-0.602;2023-05-20T23:16:40;102013.31;;;17.68;57.21
50356;BME280;36264;51.296;-0.602;2023-05-20T23:19:07;102008.06;;;17.68;56.81
50356;BME280;36264;51.296;-0.602;2023-05-20T23:21:32;102002.94;;;17.65;56.35
50356;BME280;36264;51.296;-0.602;2023-05-20T23:23:58;101996.91;;;17.63;55.90
50356;BME280;36264;51.296;-0.602;2023-05-20T23:26:23;101990.41;;;17.49;55.67
50356;BME280;36264;51.296;-0.602;2023-05-20T23:28:53;101994.22;;;17.42;55.53
50356;BME280;36264;51.296;-0.602;2023-05-20T23:31:18;101986.22;;;17.45;55.01
50356;BME280;36264;51.296;-0.602;2023-05-20T23:33:44;101982.69;;;17.46;54.21
50356;BME280;36264;51.296;-0.602;2023-05-20T23:36:09;101975.84;;;17.42;53.76
50356;BME280;36264;51.296;-0.602;2023-05-20T23:38:36;101982.16;;;17.36;53.78
50356;BME280;36264;51.296;-0.602;2023-05-20T23:41:02;101984.88;;;17.35;53.59
50356;BME280;36264;51.296;-0.602;2023-05-20T23:43:27;101978.22;;;17.26;53.14
50356;BME280;36264;51.296;-0.602;2023-05-20T23:45:52;101975.09;;;17.16;52.43
50356;BME280;36264;51.296;-0.602;2023-05-20T23:48:18;101980.34;;;17.16;52.56
50356;BME280;36264;51.296;-0.602;2023-05-20T23:50:44;101979.59;;;17.13;52.12
50356;BME280;36264;51.296;-0.602;2023-05-20T23:53:10;101979.81;;;17.08;52.06